createdAt,value
2018-06-10T00:02:10.788Z,12.97
2018-06-10T00:04:39.363Z,12.47
2018-06-10T00:07:07.946Z,12.80
2018-06-10T00:09:36.490Z,12.73
2018-06-10T00:12:04.987Z,12.27
2018-06-10T00:14:33.565Z,14.23
2018-06-10T00:17:02.181Z,15.03
2018-06-10T00:19:30.658Z,12.03
2018-06-10T00:22:00.154Z,13.27
2018-06-10T00:24:28.722Z,13.47
2018-06-10T00:26:57.300Z,13.43
2018-06-10T00:29:25.951Z,15.37
2018-06-10T00:31:54.599Z,12.77
2018-06-10T00:34:23.219Z,14.37
2018-06-10T00:36:51.823Z,13.70
2018-06-10T00:39:20.400Z,12.10
2018-06-10T00:41:48.964Z,12.67
2018-06-10T00:44:17.507Z,13.30
2018-06-10T00:46:46.196Z,17.27
2018-06-10T00:49:14.716Z,15.27
2018-06-10T00:51:43.245Z,14.60
2018-06-10T00:54:11.866Z,13.50
2018-06-10T00:56:49.859Z,16.53
2018-06-10T00:59:18.392Z,14.83
2018-06-10T01:01:46.901Z,13.63
2018-06-10T01:04:15.416Z,14.53
2018-06-10T01:06:44.068Z,16.30
2018-06-10T01:09:12.652Z,12.87
2018-06-10T01:11:41.169Z,13.03
2018-06-10T01:14:09.863Z,13.93
2018-06-10T01:16:38.433Z,16.17
2018-06-10T01:19:06.910Z,14.10
2018-06-10T01:21:35.424Z,13.40
2018-06-10T01:24:03.904Z,13.97
2018-06-10T01:26:37.786Z,16.50
2018-06-10T01:29:06.313Z,14.50
2018-06-10T01:31:34.823Z,16.03
2018-06-10T01:34:03.356Z,15.57
2018-06-10T01:36:31.890Z,15.00
2018-06-10T01:39:00.469Z,17.07
2018-06-10T01:41:29.080Z,17.20
2018-06-10T01:43:57.674Z,22.37
2018-06-10T01:46:26.290Z,16.47
2018-06-10T01:48:54.837Z,19.43
2018-06-10T01:51:23.358Z,17.10
2018-06-10T01:53:51.790Z,16.97
2018-06-10T01:56:20.290Z,16.73
2018-06-10T01:58:48.828Z,17.17
2018-06-10T02:01:17.328Z,18.10
2018-06-10T02:03:45.798Z,16.87
2018-06-10T02:06:14.433Z,15.90
2018-06-10T02:08:43.018Z,16.13
2018-06-10T02:11:11.585Z,19.30
2018-06-10T02:13:40.133Z,18.03
2018-06-10T02:16:08.769Z,19.10
2018-06-10T02:18:37.299Z,22.87
2018-06-10T02:21:05.729Z,23.80
2018-06-10T02:23:34.227Z,18.87
2018-06-10T02:26:02.877Z,19.20
2018-06-10T02:28:31.392Z,18.87
2018-06-10T02:30:59.964Z,18.20
2018-06-10T02:33:28.529Z,19.33
2018-06-10T02:35:57.045Z,19.50
2018-06-10T02:38:26.074Z,18.40
2018-06-10T02:40:54.508Z,18.80
2018-06-10T02:43:23.039Z,18.60
2018-06-10T02:45:52.445Z,17.90
2018-06-10T02:48:21.588Z,19.57
2018-06-10T02:50:50.122Z,18.07
2018-06-10T02:53:18.691Z,17.23
2018-06-10T02:55:49.859Z,17.73
2018-06-10T02:58:18.432Z,18.37
2018-06-10T03:00:46.975Z,18.50
2018-06-10T03:03:16.795Z,18.47
2018-06-10T03:05:45.568Z,15.67
2018-06-10T03:08:14.135Z,18.00
2018-06-10T03:10:43.564Z,17.63
2018-06-10T03:13:12.532Z,20.03
2018-06-10T03:15:41.120Z,16.80
2018-06-10T03:18:09.606Z,18.77
2018-06-10T03:20:38.675Z,18.67
2018-06-10T03:23:07.274Z,20.97
2018-06-10T03:25:35.835Z,19.87
2018-06-10T03:28:05.352Z,17.43
2018-06-10T03:30:35.264Z,18.50
2018-06-10T03:33:03.995Z,20.13
2018-06-10T03:35:32.667Z,23.07
2018-06-10T03:38:03.810Z,20.73
2018-06-10T03:40:32.340Z,21.10
2018-06-10T03:43:00.808Z,23.47
2018-06-10T03:45:31.100Z,19.87
2018-06-10T03:47:59.836Z,23.07
2018-06-10T03:50:28.298Z,19.70
2018-06-10T03:52:56.809Z,18.77
2018-06-10T03:55:27.004Z,22.20
2018-06-10T03:57:56.411Z,23.20
2018-06-10T04:00:24.951Z,21.50
2018-06-10T04:02:53.448Z,21.07
2018-06-10T04:05:22.006Z,18.83
2018-06-10T04:07:50.511Z,17.93
2018-06-10T04:10:18.985Z,17.73
2018-06-10T04:12:47.440Z,19.37
2018-06-10T04:15:15.960Z,19.10
2018-06-10T04:17:44.497Z,21.13
2018-06-10T04:20:13.058Z,19.67
2018-06-10T04:22:41.705Z,19.73
2018-06-10T04:25:11.383Z,20.80
2018-06-10T04:27:40.379Z,21.30
2018-06-10T04:30:09.725Z,21.40
2018-06-10T04:32:38.187Z,21.10
2018-06-10T04:35:07.825Z,21.37
2018-06-10T04:37:36.972Z,22.63
2018-06-10T04:40:05.429Z,19.20
2018-06-10T04:42:33.934Z,20.27
2018-06-10T04:45:02.458Z,19.60
2018-06-10T04:47:30.930Z,18.87
2018-06-10T04:49:59.383Z,20.30
2018-06-10T04:52:28.888Z,18.13
2018-06-10T04:54:57.444Z,18.47
2018-06-10T04:57:26.039Z,19.50
2018-06-10T04:59:54.508Z,19.33
2018-06-10T05:02:23.064Z,21.07
2018-06-10T05:04:51.541Z,21.33
2018-06-10T05:07:20.056Z,22.90
2018-06-10T05:09:48.728Z,18.67
2018-06-10T05:12:17.197Z,20.40
2018-06-10T05:14:45.733Z,19.03
2018-06-10T05:17:14.318Z,19.43
2018-06-10T05:19:43.843Z,18.97
2018-06-10T05:22:12.295Z,19.50
2018-06-10T05:24:40.697Z,18.77
2018-06-10T05:27:09.277Z,17.23
2018-06-10T05:29:37.749Z,18.40
2018-06-10T05:32:06.232Z,16.47
2018-06-10T05:34:34.767Z,21.40
2018-06-10T05:37:03.306Z,19.10
2018-06-10T05:39:31.809Z,21.10
2018-06-10T05:42:00.241Z,19.00
2018-06-10T05:44:28.750Z,21.37
2018-06-10T05:46:57.313Z,18.13
2018-06-10T05:49:25.771Z,17.10
2018-06-10T05:51:54.304Z,18.93
2018-06-10T05:54:22.881Z,19.17
2018-06-10T05:56:51.396Z,17.17
2018-06-10T05:59:19.986Z,16.23
2018-06-10T06:01:48.565Z,18.93
2018-06-10T06:04:17.181Z,15.70
2018-06-10T06:06:45.731Z,20.77
2018-06-10T06:09:14.228Z,15.80
2018-06-10T06:11:42.748Z,16.13
2018-06-10T06:14:11.229Z,18.03
2018-06-10T06:16:39.798Z,16.00
2018-06-10T06:19:08.289Z,15.47
2018-06-10T06:21:36.813Z,18.63
2018-06-10T06:24:05.429Z,15.43
2018-06-10T06:26:34.026Z,16.93
2018-06-10T06:29:02.569Z,15.30
2018-06-10T06:31:31.139Z,15.90
2018-06-10T06:33:59.717Z,15.53
2018-06-10T06:36:28.292Z,13.23
2018-06-10T06:38:57.731Z,17.30
2018-06-10T06:41:26.454Z,16.00
2018-06-10T06:43:54.966Z,13.40
2018-06-10T06:46:23.568Z,12.60
2018-06-10T06:48:52.117Z,12.85
2018-06-10T06:51:20.580Z,12.45
2018-06-10T06:53:49.035Z,12.63
2018-06-10T06:56:17.550Z,12.43
2018-06-10T06:58:46.141Z,13.08
2018-06-10T07:01:15.184Z,8.48
2018-06-10T07:03:44.470Z,11.48
2018-06-10T07:06:12.933Z,11.15
2018-06-10T07:08:41.458Z,11.03
2018-06-10T07:11:10.019Z,10.10
2018-06-10T07:13:38.651Z,10.48
2018-06-10T07:16:07.155Z,10.08
2018-06-10T07:18:35.693Z,11.70
2018-06-10T07:21:05.106Z,8.73
2018-06-10T07:23:33.578Z,10.72
2018-06-10T07:26:02.086Z,9.85
2018-06-10T07:28:30.570Z,10.82
2018-06-10T07:30:59.135Z,8.78
2018-06-10T07:33:27.675Z,14.53
2018-06-10T07:35:56.145Z,9.15
2018-06-10T07:38:24.656Z,13.62
2018-06-10T07:40:53.225Z,8.85
2018-06-10T07:43:21.674Z,10.35
2018-06-10T07:45:50.156Z,10.85
2018-06-10T07:48:18.690Z,9.73
2018-06-10T07:50:47.206Z,12.03
2018-06-10T07:53:15.799Z,9.20
2018-06-10T07:55:44.455Z,11.93
2018-06-10T07:58:12.955Z,12.53
2018-06-10T08:00:41.473Z,10.65
2018-06-10T08:03:10.132Z,9.95
2018-06-10T08:05:38.690Z,11.70
2018-06-10T08:08:07.176Z,12.65
2018-06-10T08:10:36.538Z,10.78
2018-06-10T08:13:05.134Z,9.15
2018-06-10T08:15:33.645Z,9.83
2018-06-10T08:18:02.166Z,8.40
2018-06-10T08:20:30.666Z,7.80
2018-06-10T08:22:59.341Z,8.78
2018-06-10T08:25:27.893Z,11.15
2018-06-10T08:27:56.501Z,5.72
2018-06-10T08:30:24.918Z,5.45
2018-06-10T08:32:53.386Z,5.30
2018-06-10T08:35:21.820Z,6.08
2018-06-10T08:37:50.245Z,5.60
2018-06-10T08:40:18.817Z,7.28
2018-06-10T08:42:47.488Z,5.25
2018-06-10T08:45:15.975Z,5.40
2018-06-10T08:47:44.449Z,5.30
2018-06-10T08:50:12.922Z,5.72
2018-06-10T08:52:41.457Z,6.97
2018-06-10T08:55:09.879Z,6.25
2018-06-10T08:57:38.382Z,7.33
2018-06-10T09:00:06.925Z,6.12
2018-06-10T09:02:35.412Z,8.80
2018-06-10T09:05:04.151Z,8.95
2018-06-10T09:07:33.360Z,5.97
2018-06-10T09:10:01.870Z,7.22
2018-06-10T09:12:30.285Z,6.15
2018-06-10T09:14:58.777Z,5.83
2018-06-10T09:17:27.304Z,7.92
2018-06-10T09:19:55.713Z,6.67
2018-06-10T09:22:24.231Z,7.37
2018-06-10T09:24:52.893Z,9.18
2018-06-10T09:27:21.382Z,5.92
2018-06-10T09:29:49.882Z,9.10
2018-06-10T09:32:18.313Z,8.20
2018-06-10T09:34:46.778Z,10.80
2018-06-10T09:37:15.330Z,8.18
2018-06-10T09:39:43.813Z,8.88
2018-06-10T09:42:12.405Z,9.35
2018-06-10T09:44:40.841Z,7.58
2018-06-10T09:47:09.299Z,7.70
2018-06-10T09:49:37.744Z,9.50
2018-06-10T09:52:06.236Z,8.38
2018-06-10T09:54:34.800Z,8.45
2018-06-10T09:57:03.299Z,10.68
2018-06-10T09:59:32.619Z,10.88
2018-06-10T10:02:01.149Z,13.85
2018-06-10T10:04:29.782Z,10.88
2018-06-10T10:06:58.274Z,9.63
2018-06-10T10:09:27.442Z,12.98
2018-06-10T10:11:56.724Z,10.58
2018-06-10T10:14:25.223Z,12.98
2018-06-10T10:16:53.758Z,12.53
2018-06-10T10:19:22.219Z,11.80
2018-06-10T10:21:50.690Z,9.65
2018-06-10T10:24:19.189Z,13.58
2018-06-10T10:26:47.637Z,10.13
2018-06-10T10:29:16.073Z,12.25
2018-06-10T10:31:44.633Z,9.63
2018-06-10T10:34:13.057Z,8.50
2018-06-10T10:36:41.524Z,12.43
2018-06-10T10:39:09.994Z,9.40
2018-06-10T10:41:38.445Z,9.10
2018-06-10T10:44:06.966Z,9.95
2018-06-10T10:46:35.402Z,11.35
2018-06-10T10:49:03.825Z,10.18
2018-06-10T10:51:32.330Z,11.88
2018-06-10T10:54:00.799Z,10.95
2018-06-10T10:56:29.357Z,11.22
2018-06-10T10:58:57.716Z,13.40
2018-06-10T11:01:26.745Z,11.45
2018-06-10T11:03:55.529Z,14.07
2018-06-10T11:06:23.872Z,8.50
2018-06-10T11:08:52.278Z,10.03
2018-06-10T11:11:20.701Z,12.23
2018-06-10T11:13:49.106Z,10.95
2018-06-10T11:16:17.496Z,11.75
2018-06-10T11:18:45.863Z,7.95
2018-06-10T11:21:14.260Z,13.22
2018-06-10T11:23:42.654Z,15.23
2018-06-10T11:26:11.007Z,12.07
2018-06-10T11:28:39.565Z,15.00
2018-06-10T11:31:07.999Z,17.20
2018-06-10T11:33:36.359Z,10.45
2018-06-10T11:36:04.728Z,12.03
2018-06-10T11:38:34.055Z,9.60
2018-06-10T11:41:02.457Z,17.23
2018-06-10T11:43:30.819Z,14.43
2018-06-10T11:45:59.179Z,17.10
2018-06-10T11:48:28.391Z,12.83
2018-06-10T11:50:56.811Z,11.87
2018-06-10T11:53:25.268Z,13.87
2018-06-10T11:55:53.673Z,13.93
2018-06-10T11:58:22.080Z,14.73
2018-06-10T12:00:50.552Z,12.93
2018-06-10T12:03:19.019Z,15.70
2018-06-10T12:05:47.413Z,18.10
2018-06-10T12:08:15.840Z,10.87
2018-06-10T12:10:44.223Z,10.80
2018-06-10T12:13:12.703Z,13.63
2018-06-10T12:15:41.191Z,10.43
2018-06-10T12:18:09.611Z,11.73
2018-06-10T12:20:37.993Z,10.63
2018-06-10T12:23:06.461Z,10.80
2018-06-10T12:25:34.877Z,9.80
2018-06-10T12:28:03.283Z,8.77
2018-06-10T12:30:31.657Z,13.23
2018-06-10T12:33:00.078Z,11.90
2018-06-10T12:35:28.500Z,12.10
2018-06-10T12:37:56.964Z,11.10
2018-06-10T12:40:25.388Z,13.13
2018-06-10T12:42:53.763Z,13.67
2018-06-10T12:45:22.145Z,13.07
2018-06-10T12:47:50.886Z,10.60
2018-06-10T12:50:19.306Z,13.17
2018-06-10T12:52:48.373Z,11.53
2018-06-10T12:55:16.789Z,11.63
2018-06-10T12:57:45.305Z,13.13
2018-06-10T13:00:13.715Z,14.97
2018-06-10T13:02:42.159Z,12.50
2018-06-10T13:05:10.627Z,24.90
2018-06-10T13:07:39.327Z,18.57
2018-06-10T13:10:08.252Z,14.17
2018-06-10T13:12:36.707Z,14.83
2018-06-10T13:15:05.157Z,15.00
2018-06-10T13:17:33.853Z,15.13
2018-06-10T13:20:02.288Z,12.73
2018-06-10T13:22:30.807Z,21.50
2018-06-10T13:24:59.181Z,11.10
2018-06-10T13:27:28.330Z,11.57
2018-06-10T13:29:56.748Z,11.20
2018-06-10T13:32:25.185Z,14.03
2018-06-10T13:34:53.598Z,10.57
2018-06-10T13:37:21.977Z,12.50
2018-06-10T13:39:50.407Z,11.90
2018-06-10T13:42:18.787Z,11.63
2018-06-10T13:44:47.177Z,12.37
2018-06-10T13:47:15.827Z,13.00
2018-06-10T13:49:44.200Z,9.97
2018-06-10T13:52:12.578Z,12.83
2018-06-10T13:54:40.986Z,14.30
2018-06-10T13:57:09.352Z,10.87
2018-06-10T13:59:37.733Z,12.67
2018-06-10T14:02:07.083Z,12.53
2018-06-10T14:04:36.129Z,10.00
2018-06-10T14:07:04.499Z,12.33
2018-06-10T14:09:32.889Z,10.53
2018-06-10T14:12:01.330Z,11.53
2018-06-10T14:14:29.895Z,13.50
2018-06-10T14:16:58.297Z,12.70
2018-06-10T14:19:26.683Z,12.53
2018-06-10T14:21:55.519Z,19.63
2018-06-10T14:24:23.903Z,14.97
2018-06-10T14:26:52.280Z,12.27
2018-06-10T14:29:20.687Z,12.93
2018-06-10T14:31:49.100Z,12.17
2018-06-10T14:34:17.480Z,13.53
2018-06-10T14:36:45.953Z,10.43
2018-06-10T14:39:14.330Z,11.13
2018-06-10T14:41:42.765Z,12.03
2018-06-10T14:44:11.194Z,18.23
2018-06-10T14:46:39.712Z,13.50
2018-06-10T14:49:08.289Z,10.03
2018-06-10T14:51:36.712Z,16.40
2018-06-10T14:54:05.197Z,15.43
2018-06-10T14:56:33.599Z,17.73
2018-06-10T14:59:01.970Z,16.63
2018-06-10T15:01:30.402Z,16.37
2018-06-10T15:03:58.851Z,12.83
2018-06-10T15:06:27.370Z,12.83
2018-06-10T15:08:55.828Z,13.97
2018-06-10T15:11:24.375Z,13.93
2018-06-10T15:13:53.532Z,11.27
2018-06-10T15:16:22.201Z,9.87
2018-06-10T15:18:50.650Z,10.67
2018-06-10T15:21:19.055Z,10.53
2018-06-10T15:23:48.131Z,11.60
2018-06-10T15:26:16.616Z,12.50
2018-06-10T15:28:45.112Z,13.33
2018-06-10T15:31:13.543Z,14.87
2018-06-10T15:33:42.056Z,12.47
2018-06-10T15:36:10.431Z,17.80
2018-06-10T15:38:38.829Z,15.70
2018-06-10T15:41:07.222Z,16.73
2018-06-10T15:43:36.500Z,11.40
2018-06-10T15:46:05.524Z,13.53
2018-06-10T15:48:33.965Z,17.73
2018-06-10T15:51:02.484Z,14.40
2018-06-10T15:53:30.879Z,14.27
2018-06-10T15:55:59.280Z,14.80
2018-06-10T15:58:27.738Z,15.17
2018-06-10T16:00:56.142Z,13.37
2018-06-10T16:03:24.568Z,15.43
2018-06-10T16:05:52.968Z,14.33
2018-06-10T16:08:21.449Z,16.87
2018-06-10T16:10:49.871Z,15.03
2018-06-10T16:13:18.389Z,16.07
2018-06-10T16:15:47.237Z,14.20
2018-06-10T16:18:15.664Z,17.53
2018-06-10T16:20:44.070Z,14.57
2018-06-10T16:23:12.518Z,16.10
2018-06-10T16:25:40.931Z,17.60
2018-06-10T16:28:09.568Z,18.97
2018-06-10T16:30:38.060Z,13.57
2018-06-10T16:33:06.456Z,17.13
2018-06-10T16:35:34.866Z,16.20
2018-06-10T16:38:03.341Z,16.33
2018-06-10T16:40:31.830Z,14.43
2018-06-10T16:43:00.333Z,14.43
2018-06-10T16:45:29.542Z,16.87
2018-06-10T16:47:59.315Z,14.00
2018-06-10T16:50:28.468Z,12.63
2018-06-10T16:52:56.994Z,11.97
2018-06-10T16:55:25.631Z,12.97
2018-06-10T16:57:54.106Z,14.53
2018-06-10T17:00:22.511Z,13.73
2018-06-10T17:02:50.916Z,13.83
2018-06-10T17:05:19.593Z,13.07
2018-06-10T17:07:47.984Z,16.27
2018-06-10T17:10:16.491Z,16.33
2018-06-10T17:12:45.290Z,14.10
2018-06-10T17:15:14.522Z,14.60
2018-06-10T17:17:43.018Z,15.70
2018-06-10T17:20:11.981Z,13.43
2018-06-10T17:22:54.263Z,17.57
2018-06-10T17:25:22.642Z,12.60
2018-06-10T17:27:51.060Z,20.23
2018-06-10T17:30:19.957Z,25.77
2018-06-10T17:32:48.436Z,15.77
2018-06-10T17:35:16.844Z,13.03
2018-06-10T17:37:45.261Z,21.30
2018-06-10T17:40:13.702Z,16.50
2018-06-10T17:42:42.143Z,12.87
2018-06-10T17:45:10.654Z,14.53
2018-06-10T17:47:39.172Z,13.67
2018-06-10T17:50:08.129Z,13.83
2018-06-10T17:52:36.520Z,14.60
2018-06-10T17:55:04.956Z,16.27
2018-06-10T17:57:33.374Z,19.20
2018-06-10T18:00:01.789Z,14.27
2018-06-10T18:02:30.171Z,14.10
2018-06-10T18:04:58.554Z,12.90
2018-06-10T18:07:26.924Z,14.10
2018-06-10T18:09:55.372Z,14.30
2018-06-10T18:12:23.821Z,15.73
2018-06-10T18:14:52.208Z,17.47
2018-06-10T18:17:20.617Z,15.67
2018-06-10T18:19:49.472Z,14.53
2018-06-10T18:22:17.922Z,13.70
2018-06-10T18:24:46.318Z,13.23
2018-06-10T18:27:14.679Z,13.67
2018-06-10T18:29:43.064Z,12.83
2018-06-10T18:32:11.466Z,13.30
2018-06-10T18:34:39.815Z,16.03
2018-06-10T18:37:08.192Z,15.27
2018-06-10T18:39:36.743Z,11.43
2018-06-10T18:42:05.131Z,12.53
2018-06-10T18:44:33.488Z,19.10
2018-06-10T18:47:02.091Z,18.57
2018-06-10T18:49:31.049Z,15.70
2018-06-10T18:51:59.436Z,14.03
2018-06-10T18:54:27.794Z,14.60
2018-06-10T18:56:56.263Z,15.73
2018-06-10T18:59:25.324Z,20.47
2018-06-10T19:01:53.731Z,16.53
2018-06-10T19:04:22.088Z,21.27
2018-06-10T19:06:50.428Z,16.17
2018-06-10T19:09:18.902Z,17.90
2018-06-10T19:11:47.296Z,17.67
2018-06-10T19:14:15.653Z,14.27
2018-06-10T19:16:44.034Z,15.43
2018-06-10T19:19:12.399Z,15.73
2018-06-10T19:21:41.407Z,27.07
2018-06-10T19:24:09.805Z,26.50
2018-06-10T19:26:38.237Z,16.67
2018-06-10T19:29:06.689Z,18.23
2018-06-10T19:31:35.080Z,14.00
2018-06-10T19:34:03.531Z,13.37
2018-06-10T19:36:32.572Z,17.37
2018-06-10T19:39:01.504Z,13.07
2018-06-10T19:41:29.987Z,16.07
2018-06-10T19:43:58.424Z,17.17
2018-06-10T19:46:26.829Z,15.90
2018-06-10T19:48:55.230Z,15.90
2018-06-10T19:51:23.668Z,15.00
2018-06-10T19:53:52.040Z,15.03
2018-06-10T19:56:20.440Z,14.60
2018-06-10T19:58:48.900Z,16.00
2018-06-10T20:01:17.319Z,15.77
2018-06-10T20:03:45.688Z,15.73
2018-06-10T20:06:14.073Z,17.60
2018-06-10T20:08:42.453Z,15.37
2018-06-10T20:11:10.813Z,13.67
2018-06-10T20:13:39.540Z,12.93
2018-06-10T20:16:07.987Z,16.13
2018-06-10T20:18:36.481Z,15.67
2018-06-10T20:21:04.855Z,14.73
2018-06-10T20:23:33.213Z,17.57
2018-06-10T20:26:01.619Z,15.00
2018-06-10T20:28:30.407Z,14.13
2018-06-10T20:30:58.751Z,19.83
2018-06-10T20:33:27.372Z,14.23
2018-06-10T20:35:55.780Z,15.03
2018-06-10T20:38:24.571Z,20.30
2018-06-10T20:40:53.052Z,16.90
2018-06-10T20:43:21.402Z,14.20
2018-06-10T20:45:49.748Z,15.60
2018-06-10T20:48:18.159Z,16.13
2018-06-10T20:50:46.577Z,13.70
2018-06-10T20:53:15.042Z,15.33
2018-06-10T20:55:43.976Z,15.90
2018-06-10T20:58:12.637Z,17.57
2018-06-10T21:00:41.083Z,14.67
2018-06-10T21:03:09.524Z,14.67
2018-06-10T21:05:37.877Z,18.33
2018-06-10T21:08:06.488Z,14.77
2018-06-10T21:10:34.848Z,13.60
2018-06-10T21:13:03.339Z,16.87
2018-06-10T21:15:31.732Z,12.47
2018-06-10T21:18:00.078Z,13.27
2018-06-10T21:20:28.454Z,14.00
2018-06-10T21:22:57.396Z,14.23
2018-06-10T21:25:25.768Z,14.73
2018-06-10T21:27:54.147Z,15.63
2018-06-10T21:30:22.551Z,13.93
2018-06-10T21:32:50.951Z,15.33
2018-06-10T21:35:19.420Z,11.80
2018-06-10T21:37:47.837Z,15.40
2018-06-10T21:40:16.236Z,13.13
2018-06-10T21:42:44.705Z,13.07
2018-06-10T21:45:13.100Z,13.47
2018-06-10T21:47:41.497Z,12.10
2018-06-10T21:50:09.891Z,13.00
2018-06-10T21:52:38.296Z,13.07
2018-06-10T21:55:06.722Z,14.80
2018-06-10T21:57:35.114Z,13.80
2018-06-10T22:00:03.487Z,11.37
2018-06-10T22:02:31.835Z,11.13
2018-06-10T22:05:00.264Z,11.30
2018-06-10T22:07:28.615Z,12.80
2018-06-10T22:09:56.967Z,10.90
2018-06-10T22:12:25.327Z,10.97
2018-06-10T22:14:53.720Z,14.10
2018-06-10T22:17:22.119Z,10.57
2018-06-10T22:19:50.485Z,10.20
2018-06-10T22:22:18.835Z,12.23
2018-06-10T22:24:47.222Z,11.67
2018-06-10T22:27:15.604Z,10.57
2018-06-10T22:29:44.002Z,10.90
2018-06-10T22:32:12.387Z,12.90
2018-06-10T22:34:40.758Z,11.50
2018-06-10T22:37:09.165Z,11.27
2018-06-10T22:39:37.651Z,11.90
2018-06-10T22:42:06.241Z,11.40
2018-06-10T22:44:34.611Z,10.00
2018-06-10T22:47:02.991Z,11.50
2018-06-10T22:49:31.369Z,11.03
2018-06-10T22:51:59.797Z,14.40
2018-06-10T22:54:39.970Z,10.10
2018-06-10T22:57:08.899Z,12.10
2018-06-10T22:59:37.274Z,11.63
2018-06-10T23:02:07.668Z,13.57
2018-06-10T23:04:36.060Z,10.47
2018-06-10T23:07:04.491Z,12.60
2018-06-10T23:09:32.854Z,10.83
2018-06-10T23:12:01.251Z,11.23
2018-06-10T23:14:29.607Z,11.27
2018-06-10T23:16:57.981Z,10.90
2018-06-10T23:19:26.332Z,11.17
2018-06-10T23:21:54.724Z,10.93
2018-06-10T23:24:23.073Z,12.57
2018-06-10T23:26:51.468Z,13.30
2018-06-10T23:29:19.836Z,13.27
2018-06-10T23:31:48.192Z,13.73
2018-06-10T23:34:16.569Z,12.33
2018-06-10T23:36:45.256Z,12.47
2018-06-10T23:39:13.780Z,9.57
2018-06-10T23:41:42.377Z,10.43
2018-06-10T23:44:10.744Z,10.53
2018-06-10T23:46:39.142Z,11.33
2018-06-10T23:49:07.671Z,13.73
2018-06-10T23:51:36.095Z,12.60
2018-06-10T23:54:04.651Z,10.90
2018-06-10T23:56:33.024Z,9.73
2018-06-10T23:59:01.379Z,11.37
